createdAt,value
2023-03-26T00:00:51.970Z,7.42
2023-03-26T00:03:18.534Z,7.41
2023-03-26T00:05:45.894Z,7.36
2023-03-26T00:08:12.387Z,7.33
2023-03-26T00:10:41.451Z,7.40
2023-03-26T00:13:09.677Z,7.48
2023-03-26T00:15:37.247Z,7.43
2023-03-26T00:18:04.041Z,7.40
2023-03-26T00:20:31.409Z,7.33
2023-03-26T00:22:58.355Z,7.26
2023-03-26T00:25:24.672Z,7.13
2023-03-26T00:27:51.115Z,7.07
2023-03-26T00:30:17.842Z,6.97
2023-03-26T00:32:44.835Z,6.88
2023-03-26T00:35:20.659Z,6.85
2023-03-26T00:37:47.135Z,6.84
2023-03-26T00:40:13.669Z,6.88
2023-03-26T00:42:40.368Z,6.90
2023-03-26T00:45:07.800Z,6.90
2023-03-26T00:47:34.686Z,6.90
2023-03-26T00:50:01.049Z,6.97
2023-03-26T00:52:27.491Z,7.00
2023-03-26T00:54:54.750Z,7.08
2023-03-26T00:57:34.605Z,7.09
2023-03-26T01:00:02.167Z,7.00
2023-03-26T01:02:29.046Z,6.89
2023-03-26T01:04:58.934Z,6.87
2023-03-26T01:07:26.677Z,6.79
2023-03-26T01:09:55.140Z,6.71
2023-03-26T01:12:24.720Z,6.72
2023-03-26T01:14:53.461Z,6.73
2023-03-26T01:17:19.953Z,6.67
2023-03-26T01:19:57.477Z,6.60
2023-03-26T01:22:26.663Z,6.57
2023-03-26T01:24:54.001Z,6.54
2023-03-26T01:27:25.728Z,6.50
2023-03-26T01:29:59.396Z,6.62
2023-03-26T01:32:48.105Z,6.56
2023-03-26T01:35:24.769Z,6.51
2023-03-26T01:37:54.129Z,6.45
2023-03-26T01:40:31.408Z,6.40
2023-03-26T01:43:05.662Z,6.37
2023-03-26T01:45:37.047Z,6.39
2023-03-26T01:48:04.510Z,6.43
2023-03-26T01:50:31.246Z,6.45
2023-03-26T01:52:57.646Z,6.32
2023-03-26T01:55:35.497Z,6.27
2023-03-26T01:58:19.335Z,6.13
2023-03-26T02:01:16.922Z,6.19
2023-03-26T02:04:18.823Z,6.32
2023-03-26T02:06:51.272Z,6.28
2023-03-26T02:09:25.534Z,6.32
2023-03-26T02:11:52.274Z,6.28
2023-03-26T02:14:18.713Z,6.20
2023-03-26T02:16:45.172Z,6.24
2023-03-26T02:19:11.600Z,6.30
2023-03-26T02:21:38.206Z,6.25
2023-03-26T02:24:04.656Z,6.25
2023-03-26T02:26:32.833Z,6.22
2023-03-26T02:28:59.786Z,6.24
2023-03-26T02:31:26.567Z,6.30
2023-03-26T02:33:54.199Z,6.30
2023-03-26T02:36:21.459Z,6.39
2023-03-26T02:38:48.046Z,6.37
2023-03-26T02:41:14.338Z,6.41
2023-03-26T02:43:40.755Z,6.46
2023-03-26T02:46:07.218Z,6.51
2023-03-26T02:48:33.713Z,6.52
2023-03-26T02:51:01.243Z,6.59
2023-03-26T02:53:27.933Z,6.58
2023-03-26T02:55:54.475Z,6.59
2023-03-26T02:58:21.029Z,6.57
2023-03-26T03:00:47.713Z,6.53
2023-03-26T03:03:14.445Z,6.48
2023-03-26T03:05:41.117Z,6.42
2023-03-26T03:08:07.511Z,6.41
2023-03-26T03:10:34.026Z,6.42
2023-03-26T03:13:00.759Z,6.34
2023-03-26T03:15:27.178Z,6.32
2023-03-26T03:17:53.596Z,6.32
2023-03-26T03:20:20.159Z,6.33
2023-03-26T03:22:46.554Z,6.37
2023-03-26T03:25:13.128Z,6.42
2023-03-26T03:27:40.946Z,6.40
2023-03-26T03:30:09.041Z,6.35
2023-03-26T03:32:35.496Z,6.30
2023-03-26T03:35:01.852Z,6.31
2023-03-26T03:37:28.191Z,6.40
2023-03-26T03:39:54.656Z,6.42
2023-03-26T03:42:21.074Z,6.43
2023-03-26T03:44:47.468Z,6.42
2023-03-26T03:47:13.859Z,6.42
2023-03-26T03:49:40.578Z,6.39
2023-03-26T03:52:07.991Z,6.39
2023-03-26T03:54:34.409Z,6.34
2023-03-26T03:57:00.987Z,6.31
2023-03-26T03:59:27.386Z,6.26
2023-03-26T04:01:53.764Z,6.26
2023-03-26T04:04:20.291Z,6.19
2023-03-26T04:06:46.784Z,6.06
2023-03-26T04:09:13.149Z,5.97
2023-03-26T04:11:39.479Z,5.98
2023-03-26T04:14:05.872Z,6.07
2023-03-26T04:16:32.461Z,6.10
2023-03-26T04:18:58.912Z,6.10
2023-03-26T04:21:25.579Z,6.07
2023-03-26T04:23:52.048Z,6.07
2023-03-26T04:26:18.830Z,5.99
2023-03-26T04:28:51.292Z,5.97
2023-03-26T04:31:20.200Z,5.91
2023-03-26T04:33:47.776Z,5.88
2023-03-26T04:36:16.797Z,5.94
2023-03-26T04:38:46.196Z,5.80
2023-03-26T04:41:14.038Z,5.75
2023-03-26T04:43:40.805Z,5.75
2023-03-26T04:46:08.006Z,5.74
2023-03-26T04:48:34.843Z,5.74
2023-03-26T04:51:01.740Z,5.74
2023-03-26T04:53:28.556Z,5.76
2023-03-26T04:56:03.638Z,5.78
2023-03-26T04:58:30.131Z,5.82
2023-03-26T05:00:56.654Z,5.79
2023-03-26T05:03:23.244Z,5.74
2023-03-26T05:05:49.768Z,5.70
2023-03-26T05:08:16.132Z,5.74
2023-03-26T05:10:42.570Z,5.81
2023-03-26T05:13:09.216Z,5.89
2023-03-26T05:15:35.594Z,5.92
2023-03-26T05:18:02.075Z,5.87
2023-03-26T05:20:30.660Z,5.87
2023-03-26T05:22:57.318Z,5.89
2023-03-26T05:25:24.098Z,5.89
2023-03-26T05:27:50.504Z,5.89
2023-03-26T05:30:20.095Z,5.87
2023-03-26T05:32:48.256Z,5.93
2023-03-26T05:35:16.221Z,5.96
2023-03-26T05:37:43.644Z,5.95
2023-03-26T05:40:10.745Z,5.96
2023-03-26T05:42:38.525Z,5.97
2023-03-26T05:45:07.080Z,6.01
2023-03-26T05:47:34.089Z,6.05
2023-03-26T05:50:00.827Z,6.06
2023-03-26T05:52:27.746Z,5.95
2023-03-26T05:54:54.109Z,6.03
2023-03-26T05:57:20.645Z,6.07
2023-03-26T05:59:47.064Z,6.10
2023-03-26T06:02:13.707Z,6.11
2023-03-26T06:04:40.234Z,6.18
2023-03-26T06:07:07.906Z,6.16
2023-03-26T06:09:34.452Z,6.05
2023-03-26T06:12:00.951Z,5.93
2023-03-26T06:14:27.404Z,5.96
2023-03-26T06:16:54.244Z,6.05
2023-03-26T06:19:20.573Z,6.11
2023-03-26T06:21:47.002Z,6.16
2023-03-26T06:24:13.429Z,6.17
2023-03-26T06:26:39.813Z,6.22
2023-03-26T06:29:06.253Z,6.25
2023-03-26T06:31:32.820Z,6.23
2023-03-26T06:33:59.184Z,6.08
2023-03-26T06:36:25.673Z,6.09
2023-03-26T06:38:52.126Z,6.14
2023-03-26T06:41:18.546Z,6.26
2023-03-26T06:43:45.052Z,6.33
2023-03-26T06:46:11.869Z,6.34
2023-03-26T06:48:39.566Z,6.39
2023-03-26T06:51:06.438Z,6.33
2023-03-26T06:53:32.823Z,6.43
2023-03-26T06:55:59.230Z,6.52
2023-03-26T06:58:25.868Z,6.61
2023-03-26T07:00:56.979Z,6.75
2023-03-26T07:03:23.594Z,6.75
2023-03-26T07:05:49.929Z,6.76
2023-03-26T07:08:16.526Z,6.74
2023-03-26T07:10:43.251Z,6.75
2023-03-26T07:13:09.841Z,6.82
2023-03-26T07:15:36.264Z,6.88
2023-03-26T07:18:02.700Z,6.90
2023-03-26T07:20:29.486Z,6.88
2023-03-26T07:22:56.515Z,7.02
2023-03-26T07:25:23.349Z,7.11
2023-03-26T07:27:57.102Z,7.15
2023-03-26T07:30:26.669Z,7.28
2023-03-26T07:32:58.056Z,7.38
2023-03-26T07:35:33.063Z,7.42
2023-03-26T07:38:18.130Z,7.30
2023-03-26T07:41:19.844Z,7.38
2023-03-26T07:43:57.535Z,7.38
2023-03-26T07:46:32.906Z,7.35
2023-03-26T07:48:59.846Z,7.28
2023-03-26T07:51:26.527Z,7.35
2023-03-26T07:53:53.229Z,7.35
2023-03-26T07:56:26.226Z,7.43
2023-03-26T07:59:28.276Z,7.37
2023-03-26T08:02:14.157Z,7.36
2023-03-26T08:04:53.526Z,7.48
2023-03-26T08:07:41.687Z,7.36
2023-03-26T08:10:25.978Z,7.33
2023-03-26T08:13:06.403Z,7.22
2023-03-26T08:15:51.789Z,7.26
2023-03-26T08:18:18.242Z,7.35
2023-03-26T08:20:49.759Z,7.31
2023-03-26T08:23:35.359Z,7.17
2023-03-26T08:26:13.293Z,7.17
2023-03-26T08:28:54.103Z,7.05
2023-03-26T08:31:28.961Z,7.14
2023-03-26T08:33:55.344Z,7.21
2023-03-26T08:36:21.770Z,7.25
2023-03-26T08:38:48.140Z,7.31
2023-03-26T08:41:14.868Z,7.26
2023-03-26T08:43:50.511Z,7.17
2023-03-26T08:46:56.006Z,7.33
2023-03-26T08:49:46.814Z,7.36
2023-03-26T08:52:58.404Z,7.39
2023-03-26T08:55:49.310Z,7.38
2023-03-26T08:58:37.527Z,7.34
2023-03-26T09:01:23.595Z,7.38
2023-03-26T09:04:09.873Z,7.50
2023-03-26T09:07:29.012Z,7.54
2023-03-26T09:10:25.406Z,7.77
2023-03-26T09:13:15.314Z,7.87
2023-03-26T09:16:02.016Z,7.99
2023-03-26T09:18:38.761Z,8.19
2023-03-26T09:21:14.018Z,8.61
2023-03-26T09:24:06.931Z,8.51
2023-03-26T09:26:44.785Z,8.60
2023-03-26T09:29:31.612Z,8.67
2023-03-26T09:32:25.158Z,8.60
2023-03-26T09:35:11.881Z,8.97
2023-03-26T09:38:09.428Z,8.90
2023-03-26T09:40:40.283Z,8.97
2023-03-26T09:43:25.015Z,8.99
2023-03-26T09:46:04.343Z,9.12
2023-03-26T09:48:48.800Z,9.77
2023-03-26T09:51:25.136Z,10.05
2023-03-26T09:54:14.032Z,10.81
2023-03-26T09:56:52.693Z,11.43
2023-03-26T10:00:02.619Z,11.85
2023-03-26T10:02:46.849Z,12.02
2023-03-26T10:05:25.363Z,11.94
2023-03-26T10:08:01.299Z,12.46
2023-03-26T10:10:59.397Z,12.08
2023-03-26T10:13:26.124Z,11.88
2023-03-26T10:16:05.587Z,11.40
2023-03-26T10:18:58.972Z,11.35
2023-03-26T10:21:30.075Z,11.37
2023-03-26T10:24:29.507Z,11.05
2023-03-26T10:27:33.332Z,10.83
2023-03-26T10:30:26.333Z,10.79
2023-03-26T10:33:27.210Z,10.91
2023-03-26T10:36:14.921Z,11.39
2023-03-26T10:39:01.535Z,12.65
2023-03-26T10:41:37.612Z,12.73
2023-03-26T10:44:15.840Z,12.66
2023-03-26T10:47:00.865Z,12.88
2023-03-26T10:50:05.110Z,12.25
2023-03-26T10:52:49.222Z,12.17
2023-03-26T10:55:26.792Z,12.61
2023-03-26T10:57:57.486Z,12.36
2023-03-26T11:00:25.145Z,12.09
2023-03-26T11:02:57.688Z,11.83
2023-03-26T11:05:40.181Z,11.81
2023-03-26T11:08:35.557Z,11.96
2023-03-26T11:11:20.468Z,12.13
2023-03-26T11:13:55.659Z,12.17
2023-03-26T11:16:26.870Z,12.23
2023-03-26T11:19:21.949Z,12.15
2023-03-26T11:22:23.361Z,12.20
2023-03-26T11:25:13.095Z,12.66
2023-03-26T11:28:26.918Z,12.64
2023-03-26T11:31:02.158Z,12.68
2023-03-26T11:33:37.550Z,13.44
2023-03-26T11:36:16.388Z,13.25
2023-03-26T11:38:51.283Z,12.94
2023-03-26T11:41:27.182Z,13.10
2023-03-26T11:44:21.396Z,13.59
2023-03-26T11:46:51.582Z,13.66
2023-03-26T11:49:21.490Z,13.78
2023-03-26T11:51:48.829Z,13.45
2023-03-26T11:54:15.784Z,13.79
2023-03-26T11:57:05.568Z,14.50
2023-03-26T11:59:48.983Z,14.37
2023-03-26T12:02:27.071Z,14.67
2023-03-26T12:05:11.107Z,14.92
2023-03-26T12:07:45.942Z,14.95
2023-03-26T12:10:22.845Z,14.62
2023-03-26T12:12:49.342Z,14.57
2023-03-26T12:15:21.016Z,14.02
2023-03-26T12:17:52.936Z,14.40
2023-03-26T12:20:25.451Z,14.26
2023-03-26T12:22:52.817Z,14.31
2023-03-26T12:25:27.928Z,14.20
2023-03-26T12:28:01.776Z,13.68
2023-03-26T12:30:32.173Z,13.55
2023-03-26T12:33:01.681Z,13.31
2023-03-26T12:35:30.758Z,13.52
2023-03-26T12:38:14.362Z,14.41
2023-03-26T12:40:41.118Z,13.74
2023-03-26T12:44:53.115Z,14.06
2023-03-26T12:47:57.494Z,14.64
2023-03-26T12:49:16.831Z,14.89
2023-03-26T12:52:03.354Z,14.67
2023-03-26T12:55:14.890Z,14.38
2023-03-26T12:58:13.637Z,14.69
2023-03-26T13:00:58.240Z,14.52
2023-03-26T13:03:46.272Z,14.82
2023-03-26T13:07:02.093Z,14.95
2023-03-26T13:09:37.540Z,15.14
2023-03-26T13:12:29.589Z,15.20
2023-03-26T13:15:17.079Z,15.30
2023-03-26T13:18:02.266Z,14.78
2023-03-26T13:20:47.770Z,15.22
2023-03-26T13:23:32.804Z,15.06
2023-03-26T13:26:14.063Z,14.92
2023-03-26T13:28:52.299Z,14.23
2023-03-26T13:31:34.236Z,14.22
2023-03-26T13:34:24.459Z,14.40
2023-03-26T13:37:13.084Z,14.07
2023-03-26T13:39:57.611Z,13.68
2023-03-26T13:42:49.996Z,13.63
2023-03-26T13:46:10.858Z,13.67
2023-03-26T13:49:09.728Z,13.50
2023-03-26T13:51:52.565Z,13.39
2023-03-26T13:54:43.509Z,13.62
2023-03-26T13:57:17.983Z,13.53
2023-03-26T13:59:50.688Z,13.52
2023-03-26T14:02:24.543Z,13.81
2023-03-26T14:05:03.899Z,13.80
2023-03-26T14:07:54.838Z,13.76
2023-03-26T14:10:25.610Z,13.94
2023-03-26T14:13:04.266Z,13.99
2023-03-26T14:15:52.238Z,13.82
2023-03-26T14:18:18.546Z,13.72
2023-03-26T14:21:06.083Z,13.45
2023-03-26T14:24:06.366Z,13.08
2023-03-26T14:26:51.208Z,12.91
2023-03-26T14:29:28.303Z,12.83
2023-03-26T14:32:13.574Z,12.67
2023-03-26T14:34:59.891Z,12.60
2023-03-26T14:38:04.334Z,12.66
2023-03-26T14:40:49.205Z,12.54
2023-03-26T14:43:49.736Z,12.30
2023-03-26T14:46:22.731Z,12.07
2023-03-26T14:49:34.358Z,11.40
2023-03-26T14:52:28.098Z,11.13
2023-03-26T14:55:01.218Z,10.89
2023-03-26T14:58:20.144Z,10.64
2023-03-26T15:01:26.146Z,10.41
2023-03-26T15:04:42.868Z,9.73
2023-03-26T15:07:34.989Z,9.17
2023-03-26T15:10:23.246Z,9.15
2023-03-26T15:13:10.651Z,9.10
2023-03-26T15:15:55.875Z,9.06
2023-03-26T15:18:47.929Z,9.13
2023-03-26T15:21:48.144Z,9.12
2023-03-26T15:24:26.635Z,9.30
2023-03-26T15:27:24.034Z,9.32
2023-03-26T15:30:11.621Z,9.44
2023-03-26T15:32:56.793Z,9.54
2023-03-26T15:36:03.334Z,9.58
2023-03-26T15:39:00.159Z,9.43
2023-03-26T15:41:31.108Z,9.50
2023-03-26T15:44:23.800Z,9.45
2023-03-26T15:47:21.587Z,9.44
2023-03-26T15:50:07.998Z,9.31
2023-03-26T15:52:44.548Z,9.29
2023-03-26T15:55:26.290Z,9.23
2023-03-26T15:58:04.468Z,8.95
2023-03-26T16:00:44.323Z,8.76
2023-03-26T16:03:10.917Z,8.56
2023-03-26T16:06:19.011Z,8.25
2023-03-26T16:09:04.856Z,8.04
2023-03-26T16:11:56.345Z,8.13
2023-03-26T16:14:24.551Z,8.02
2023-03-26T16:16:56.028Z,8.12
2023-03-26T16:19:23.024Z,8.08
2023-03-26T16:22:12.262Z,7.97
2023-03-26T16:24:44.709Z,8.01
2023-03-26T16:27:13.866Z,8.00
2023-03-26T16:30:06.466Z,8.01
2023-03-26T16:32:36.075Z,8.01
2023-03-26T16:35:35.313Z,7.98
2023-03-26T16:38:12.442Z,7.98
2023-03-26T16:40:59.748Z,7.88
2023-03-26T16:43:45.986Z,7.83
2023-03-26T16:46:46.335Z,7.80
2023-03-26T16:49:44.303Z,7.84
2023-03-26T16:52:20.728Z,7.73
2023-03-26T16:55:02.627Z,7.80
2023-03-26T16:57:41.448Z,7.78
2023-03-26T17:00:11.036Z,7.78
2023-03-26T17:03:12.029Z,7.78
2023-03-26T17:05:41.522Z,7.77
2023-03-26T17:08:35.631Z,7.73
2023-03-26T17:11:46.628Z,7.66
2023-03-26T17:14:31.999Z,7.71
2023-03-26T17:17:07.575Z,7.64
2023-03-26T17:19:37.482Z,7.60
2023-03-26T17:22:22.443Z,7.59
2023-03-26T17:25:08.934Z,7.54
2023-03-26T17:27:42.897Z,7.42
2023-03-26T17:30:28.321Z,7.42
2023-03-26T17:32:57.593Z,7.35
2023-03-26T17:35:59.354Z,7.22
2023-03-26T17:38:25.952Z,7.27
2023-03-26T17:41:00.435Z,7.26
2023-03-26T17:43:48.276Z,7.12
2023-03-26T17:46:41.656Z,7.08
2023-03-26T17:49:11.098Z,7.18
2023-03-26T17:51:50.399Z,7.19
2023-03-26T17:54:39.651Z,7.15
2023-03-26T17:57:42.799Z,7.10
2023-03-26T18:00:21.810Z,7.05
2023-03-26T18:03:07.262Z,7.06
2023-03-26T18:05:38.707Z,7.11
2023-03-26T18:08:27.048Z,7.05
2023-03-26T18:11:18.304Z,7.02
2023-03-26T18:14:09.969Z,7.02
2023-03-26T18:16:45.692Z,7.10
2023-03-26T18:19:21.018Z,7.13
2023-03-26T18:21:50.582Z,7.09
2023-03-26T18:24:40.362Z,7.09
2023-03-26T18:27:14.072Z,7.12
2023-03-26T18:30:03.309Z,7.11
2023-03-26T18:32:32.788Z,7.06
2023-03-26T18:35:19.211Z,7.05
2023-03-26T18:37:48.574Z,7.03
2023-03-26T18:40:18.964Z,7.05
2023-03-26T18:42:49.792Z,7.08
2023-03-26T18:45:23.973Z,7.04
2023-03-26T18:47:57.135Z,7.01
2023-03-26T18:50:29.883Z,6.95
2023-03-26T18:52:58.980Z,6.91
2023-03-26T18:55:52.448Z,6.86
2023-03-26T18:58:30.716Z,6.91
2023-03-26T19:01:03.894Z,6.91
2023-03-26T19:03:43.456Z,6.88
2023-03-26T19:06:35.401Z,6.91
2023-03-26T19:09:04.158Z,6.98
2023-03-26T19:11:30.612Z,6.98
2023-03-26T19:14:07.082Z,6.96
2023-03-26T19:16:34.628Z,6.94
2023-03-26T19:19:05.370Z,6.91
2023-03-26T19:21:34.373Z,6.87
2023-03-26T19:24:01.660Z,6.75
2023-03-26T19:26:28.463Z,6.68
2023-03-26T19:28:56.257Z,6.70
2023-03-26T19:31:32.090Z,6.73
2023-03-26T19:34:11.591Z,6.70
2023-03-26T19:36:49.197Z,6.69
2023-03-26T19:39:24.235Z,6.63
2023-03-26T19:41:54.201Z,6.60
2023-03-26T19:44:30.688Z,6.65
2023-03-26T19:47:19.889Z,6.62
2023-03-26T19:49:53.708Z,6.68
2023-03-26T19:52:23.677Z,6.66
2023-03-26T19:54:59.707Z,6.62
2023-03-26T19:57:31.921Z,6.67
2023-03-26T19:59:59.454Z,6.73
2023-03-26T20:02:27.154Z,6.69
2023-03-26T20:04:53.639Z,6.58
2023-03-26T20:07:22.635Z,6.63
2023-03-26T20:10:02.942Z,6.55
2023-03-26T20:12:29.495Z,6.50
2023-03-26T20:14:55.886Z,6.45
2023-03-26T20:17:22.577Z,6.36
2023-03-26T20:19:48.919Z,6.28
2023-03-26T20:22:19.610Z,6.29
2023-03-26T20:24:46.485Z,6.30
2023-03-26T20:27:13.576Z,6.33
2023-03-26T20:29:41.122Z,6.33
2023-03-26T20:32:19.756Z,6.33
2023-03-26T20:34:46.250Z,6.31
2023-03-26T20:37:12.689Z,6.33
2023-03-26T20:39:39.121Z,6.29
2023-03-26T20:42:05.492Z,6.25
2023-03-26T20:44:31.915Z,6.25
2023-03-26T20:46:58.306Z,6.23
2023-03-26T20:49:24.689Z,6.22
2023-03-26T20:51:51.055Z,6.25
2023-03-26T20:54:20.462Z,6.28
2023-03-26T20:56:48.107Z,6.30
2023-03-26T20:59:21.713Z,6.34
2023-03-26T21:01:49.559Z,6.27
2023-03-26T21:04:17.392Z,6.21
2023-03-26T21:06:43.972Z,6.17
2023-03-26T21:09:15.123Z,6.10
2023-03-26T21:11:51.991Z,6.00
2023-03-26T21:14:38.543Z,5.96
2023-03-26T21:17:05.397Z,5.99
2023-03-26T21:19:32.231Z,6.00
2023-03-26T21:22:03.296Z,6.06
2023-03-26T21:24:54.442Z,6.06
2023-03-26T21:27:47.313Z,6.04
2023-03-26T21:30:15.629Z,6.08
2023-03-26T21:32:44.324Z,6.02
2023-03-26T21:35:12.380Z,6.03
2023-03-26T21:37:40.202Z,6.09
2023-03-26T21:40:07.650Z,6.08
2023-03-26T21:42:34.639Z,6.05
2023-03-26T21:45:01.225Z,6.06
2023-03-26T21:47:27.785Z,6.08
2023-03-26T21:49:54.430Z,6.07
2023-03-26T21:52:21.332Z,6.04
2023-03-26T21:54:48.146Z,6.02
2023-03-26T21:57:32.480Z,5.99
2023-03-26T22:00:15.768Z,5.98
2023-03-26T22:02:49.871Z,5.94
2023-03-26T22:05:19.006Z,5.89
2023-03-26T22:07:53.182Z,5.91
2023-03-26T22:10:19.955Z,5.90
2023-03-26T22:12:46.469Z,5.87
2023-03-26T22:15:13.011Z,5.88
2023-03-26T22:17:40.679Z,5.89
2023-03-26T22:20:12.003Z,5.88
2023-03-26T22:22:42.664Z,5.88
2023-03-26T22:25:09.465Z,5.82
2023-03-26T22:27:44.436Z,5.72
2023-03-26T22:30:12.520Z,5.71
2023-03-26T22:32:39.058Z,5.77
2023-03-26T22:35:06.495Z,5.75
2023-03-26T22:37:33.300Z,5.82
2023-03-26T22:39:59.761Z,5.83
2023-03-26T22:42:27.285Z,5.85
2023-03-26T22:44:53.602Z,5.83
2023-03-26T22:47:20.009Z,5.82
2023-03-26T22:49:46.741Z,5.79
2023-03-26T22:52:13.158Z,5.80
2023-03-26T22:54:39.830Z,5.83
2023-03-26T22:57:06.252Z,5.82
2023-03-26T22:59:32.698Z,5.78
2023-03-26T23:01:59.176Z,5.76
2023-03-26T23:04:31.254Z,5.78
2023-03-26T23:06:58.806Z,5.80
2023-03-26T23:09:25.246Z,5.82
2023-03-26T23:11:51.773Z,5.78
2023-03-26T23:14:18.160Z,5.75
2023-03-26T23:16:44.898Z,5.74
2023-03-26T23:19:12.112Z,5.77
2023-03-26T23:21:38.559Z,5.80
2023-03-26T23:24:05.756Z,5.81
2023-03-26T23:26:37.764Z,5.78
2023-03-26T23:29:10.641Z,5.76
2023-03-26T23:31:37.302Z,5.68
2023-03-26T23:34:03.711Z,5.66
2023-03-26T23:36:30.206Z,5.69
2023-03-26T23:38:56.740Z,5.68
2023-03-26T23:41:23.553Z,5.68
2023-03-26T23:43:54.231Z,5.75
2023-03-26T23:46:27.156Z,5.74
2023-03-26T23:48:53.895Z,5.71
2023-03-26T23:51:21.484Z,5.74
2023-03-26T23:53:49.522Z,5.73
2023-03-26T23:56:16.160Z,5.62
2023-03-26T23:58:42.574Z,5.57
